Time;durP1;ratioP1;P1;durP2;ratioP2;P2;SDS_P1;SDS_P2;PMS_P1;PMS_P2;Temp;Humidity;BMP_temperature;BMP_pressure;BME280_temperature;BME280_humidity;BME280_pressure;Samples;Min_cycle;Max_cycle;Signal;HPM_P1;HPM_P2
2023/03/14 00:00:12;;;;;;;55.70;53.33;;;;;;;9.14;87.99;96358.81;5011221;28;20026;-70
2023/03/14 00:02:38;;;;;;;56.03;53.67;;;;;;;9.13;88.63;96365.28;5006258;28;20033;-70
2023/03/14 00:05:06;;;;;;;53.63;51.42;;;;;;;9.08;88.59;96373.34;5027091;28;20113;-71
2023/03/14 00:07:40;;;;;;;55.75;53.42;;;;;;;9.07;88.80;96373.66;5031711;28;20048;-70
2023/03/14 00:10:09;;;;;;;58.22;55.70;;;;;;;9.09;88.23;96383.03;5017301;28;20492;-70
2023/03/14 00:12:35;;;;;;;56.08;53.80;;;;;;;9.05;88.85;96398.09;5030307;28;20032;-70
2023/03/14 00:15:03;;;;;;;53.83;51.60;;;;;;;9.01;88.49;96413.13;5031451;28;20034;-70
2023/03/14 00:17:28;;;;;;;55.70;53.45;;;;;;;8.96;89.09;96422.03;5030395;28;20044;-72
2023/03/14 00:19:54;;;;;;;53.40;51.10;;;;;;;9.02;88.76;96426.31;5034761;28;20496;-72
2023/03/14 00:22:20;;;;;;;55.20;52.92;;;;;;;8.86;89.30;96437.41;5035450;28;20025;-72
2023/03/14 00:24:45;;;;;;;55.25;52.95;;;;;;;8.95;88.89;96441.09;5033812;28;20048;-72
2023/03/14 00:27:11;;;;;;;51.63;49.42;;;;;;;8.87;88.97;96442.47;5034364;28;20022;-75
2023/03/14 00:29:37;;;;;;;54.78;52.47;;;;;;;8.96;88.77;96453.47;5034327;28;20128;-75
2023/03/14 00:32:03;;;;;;;51.97;49.88;;;;;;;8.89;89.40;96461.78;5034099;28;20176;-75
2023/03/14 00:34:30;;;;;;;52.55;50.33;;;;;;;8.99;87.91;96453.69;5017474;28;20392;-75
2023/03/14 00:36:56;;;;;;;53.05;50.88;;;;;;;9.00;88.20;96465.25;5034036;28;20021;-75
2023/03/14 00:39:21;;;;;;;51.92;49.78;;;;;;;9.01;88.67;96473.00;5024837;28;20048;-75
2023/03/14 00:41:47;;;;;;;53.95;51.75;;;;;;;9.02;88.36;96473.81;5023541;28;20025;-75
2023/03/14 00:44:12;;;;;;;50.60;48.30;;;;;;;8.96;88.67;96491.06;5017270;28;20038;-76
2023/03/14 00:46:38;;;;;;;50.97;48.88;;;;;;;8.98;88.15;96489.66;5033963;28;20025;-75
2023/03/14 00:49:03;;;;;;;51.40;49.30;;;;;;;9.00;88.34;96492.09;5017676;28;20124;-76
2023/03/14 00:51:28;;;;;;;49.35;47.28;;;;;;;9.04;88.53;96487.78;5017359;28;20472;-75
2023/03/14 00:53:54;;;;;;;51.20;48.90;;;;;;;9.01;87.94;96488.31;5034782;28;20053;-76
2023/03/14 00:56:20;;;;;;;51.95;49.85;;;;;;;9.10;87.97;96486.69;5017130;28;20444;-74
2023/03/14 00:58:45;;;;;;;50.42;48.33;;;;;;;8.99;88.85;96490.47;5034953;28;20044;-75
2023/03/14 01:01:15;;;;;;;47.28;45.38;;;;;;;8.99;88.56;96485.09;5033576;28;20032;-74
2023/03/14 01:03:40;;;;;;;47.90;45.90;;;;;;;8.92;88.83;96480.03;5016780;28;20549;-75
2023/03/14 01:06:17;;;;;;;48.58;46.58;;;;;;;8.96;88.08;96477.63;5016874;28;20025;-75
2023/03/14 01:08:43;;;;;;;49.42;47.38;;;;;;;8.95;88.52;96484.88;5033635;28;20075;-75
2023/03/14 01:11:12;;;;;;;51.53;49.42;;;;;;;8.98;88.39;96495.03;5033617;28;20226;-74
2023/03/14 01:13:38;;;;;;;51.35;49.35;;;;;;;8.93;88.33;96494.28;5033240;28;20071;-74
2023/03/14 01:16:06;;;;;;;51.70;49.60;;;;;;;9.00;88.57;96486.72;5033434;28;20072;-75
2023/03/14 01:18:32;;;;;;;51.10;49.00;;;;;;;8.96;87.91;96480.31;5033409;28;20083;-74
2023/03/14 01:20:57;;;;;;;54.30;51.88;;;;;;;8.91;87.51;96488.38;5016838;28;20486;-74
2023/03/14 01:23:23;;;;;;;51.83;49.72;;;;;;;8.86;88.53;96472.28;5033120;28;20448;-74
2023/03/14 01:25:48;;;;;;;50.25;48.15;;;;;;;8.93;88.36;96478.16;5000456;28;20056;-74
2023/03/14 01:28:15;;;;;;;48.83;46.83;;;;;;;8.98;87.68;96484.28;5016998;28;20052;-75
2023/03/14 01:30:41;;;;;;;51.78;49.63;;;;;;;8.89;88.23;96491.31;5032292;28;20052;-75
2023/03/14 01:33:06;;;;;;;51.40;49.30;;;;;;;8.85;87.82;96484.09;5016401;28;20116;-76
2023/03/14 01:35:32;;;;;;;49.50;47.50;;;;;;;8.96;87.69;96469.56;5016551;28;20029;-76
2023/03/14 01:37:58;;;;;;;51.38;49.17;;;;;;;8.89;87.98;96461.78;5000569;28;20035;-76
2023/03/14 01:40:24;;;;;;;53.75;51.55;;;;;;;8.82;88.74;96468.56;5016653;28;20029;-76
2023/03/14 01:42:57;;;;;;;51.70;49.60;;;;;;;8.83;88.14;96459.41;5032645;28;20041;-76
2023/03/14 01:46:00;;;;;;;55.75;53.35;;;;;;;8.86;88.30;96450.81;5016430;28;20030;-76
2023/03/14 01:48:28;;;;;;;52.83;50.63;;;;;;;8.84;88.06;96444.94;5032830;28;20072;-74
2023/03/14 01:50:54;;;;;;;51.30;49.20;;;;;;;8.89;87.62;96442.22;5000035;28;20029;-75
2023/03/14 01:53:21;;;;;;;53.70;51.40;;;;;;;8.81;88.61;96434.75;5015940;28;20121;-75
2023/03/14 01:55:48;;;;;;;51.28;49.08;;;;;;;8.84;87.81;96426.94;5032872;28;20021;-75
2023/03/14 01:58:14;;;;;;;53.50;51.28;;;;;;;8.87;87.50;96439.00;5016170;28;20061;-75
2023/03/14 02:00:40;;;;;;;52.17;50.08;;;;;;;8.93;87.51;96435.22;5016221;28;20029;-75
2023/03/14 02:03:11;;;;;;;53.80;51.45;;;;;;;8.90;87.70;96435.75;5032532;28;20037;-75
2023/03/14 02:05:39;;;;;;;51.72;49.63;;;;;;;8.82;87.95;96433.66;5015969;28;20056;-75
2023/03/14 02:08:11;;;;;;;51.08;48.97;;;;;;;8.85;88.84;96430.41;5030022;28;20025;-75
2023/03/14 02:10:45;;;;;;;54.70;52.40;;;;;;;8.75;88.87;96425.13;5016752;28;20067;-76
2023/03/14 02:13:11;;;;;;;54.78;52.28;;;;;;;8.86;88.47;96415.94;5015425;28;20121;-75
2023/03/14 02:15:59;;;;;;;54.75;52.45;;;;;;;8.76;88.70;96416.78;5031893;28;20487;-75
2023/03/14 02:19:00;;;;;;;55.35;53.15;;;;;;;8.79;88.39;96410.06;5030929;28;20396;-75
2023/03/14 02:21:48;;;;;;;57.45;55.15;;;;;;;8.72;88.38;96407.69;5021379;28;20049;-75
2023/03/14 02:24:24;;;;;;;54.88;52.67;;;;;;;8.83;87.77;96398.50;5046578;28;20065;-74
2023/03/14 02:27:13;;;;;;;55.65;53.38;;;;;;;8.76;88.06;96399.88;5032068;28;20064;-74
2023/03/14 02:29:56;;;;;;;53.13;50.97;;;;;;;8.72;88.50;96385.41;5024014;28;20124;-74
2023/03/14 02:32:24;;;;;;;52.92;50.72;;;;;;;8.70;87.99;96380.31;5018993;28;20033;-75
2023/03/14 02:34:55;;;;;;;51.08;49.05;;;;;;;8.78;87.40;96376.22;5015264;28;20021;-74
2023/03/14 02:37:21;;;;;;;50.75;48.67;;;;;;;8.72;88.20;96370.13;5031820;28;20451;-74
2023/03/14 02:39:49;;;;;;;53.05;50.92;;;;;;;8.68;88.07;96368.25;5042109;28;20428;-75
2023/03/14 02:42:15;;;;;;;52.00;49.88;;;;;;;8.68;87.56;96360.22;5017014;28;20521;-75
2023/03/14 02:45:08;;;;;;;51.50;49.42;;;;;;;8.61;88.30;96354.34;5015046;28;20120;-75
2023/03/14 02:47:41;;;;;;;53.05;50.95;;;;;;;8.69;87.98;96353.75;5030546;28;20033;-75
2023/03/14 02:50:13;;;;;;;53.30;51.17;;;;;;;8.56;87.61;96346.31;5015357;28;20090;-75
2023/03/14 02:52:38;;;;;;;52.53;50.42;;;;;;;8.66;87.45;96347.06;5031535;28;20113;-76
2023/03/14 02:55:04;;;;;;;53.35;51.25;;;;;;;8.69;87.54;96340.34;5044658;28;20112;-76
2023/03/14 02:57:31;;;;;;;52.03;49.92;;;;;;;8.63;86.91;96344.13;5015160;28;20082;-75
2023/03/14 03:00:01;;;;;;;48.55;46.55;;;;;;;8.48;88.06;96339.66;5031454;28;20052;-75
2023/03/14 03:02:27;;;;;;;49.38;47.28;;;;;;;8.55;88.05;96342.03;5015041;28;20044;-76
2023/03/14 03:04:53;;;;;;;47.95;45.95;;;;;;;8.57;87.50;96339.84;5030949;28;20021;-75
2023/03/14 03:07:19;;;;;;;51.42;49.42;;;;;;;8.48;87.89;96344.19;5031441;28;20531;-75
2023/03/14 03:09:45;;;;;;;50.03;48.03;;;;;;;8.45;88.33;96350.91;5027948;28;20044;-74
2023/03/14 03:12:10;;;;;;;47.47;45.58;;;;;;;8.57;88.22;96358.63;5042338;28;20112;-74
2023/03/14 03:14:37;;;;;;;51.30;49.30;;;;;;;8.51;87.18;96349.03;5001488;28;20013;-74
2023/03/14 03:17:04;;;;;;;51.75;49.58;;;;;;;8.47;87.49;96354.13;5041543;28;20040;-74
2023/03/14 03:19:30;;;;;;;48.55;46.65;;;;;;;8.49;87.75;96353.88;5033746;28;20044;-73
2023/03/14 03:21:56;;;;;;;47.92;45.92;;;;;;;8.46;87.44;96349.03;5041173;28;20044;-73
2023/03/14 03:24:21;;;;;;;46.78;44.83;;;;;;;8.41;88.44;96349.06;5035124;28;20029;-72
2023/03/14 03:26:47;;;;;;;47.42;45.47;;;;;;;8.45;87.58;96342.88;5024276;28;20111;-74
2023/03/14 03:29:12;;;;;;;47.80;45.83;;;;;;;8.39;88.27;96351.22;5017887;28;20033;-74
2023/03/14 03:31:38;;;;;;;47.28;45.38;;;;;;;8.45;87.85;96342.88;4998102;28;20465;-74
2023/03/14 03:34:03;;;;;;;46.03;44.22;;;;;;;8.40;88.58;96331.38;5027283;28;20025;-76
2023/03/14 03:36:29;;;;;;;46.38;44.50;;;;;;;8.42;88.39;96319.31;5014394;28;20116;-75
2023/03/14 03:38:57;;;;;;;44.60;42.80;;;;;;;8.43;87.75;96293.25;5014667;28;20135;-75
2023/03/14 03:41:23;;;;;;;49.25;47.17;;;;;;;8.40;88.38;96320.66;4994701;28;20536;-76
2023/03/14 03:43:49;;;;;;;46.63;44.83;;;;;;;8.37;88.05;96316.66;5013880;28;20060;-76
2023/03/14 03:46:16;;;;;;;48.60;46.58;;;;;;;8.30;88.02;96314.28;5014325;28;20073;-76
2023/03/14 03:48:41;;;;;;;48.00;46.03;;;;;;;8.37;88.21;96310.47;5014044;28;20060;-75
2023/03/14 03:51:07;;;;;;;46.40;44.60;;;;;;;8.41;88.16;96323.06;5014363;28;20040;-75
2023/03/14 03:53:33;;;;;;;48.72;46.75;;;;;;;8.40;87.89;96336.75;5013725;28;20022;-75
2023/03/14 03:56:02;;;;;;;47.88;45.88;;;;;;;8.40;87.23;96331.38;5014418;28;20026;-76
2023/03/14 03:58:28;;;;;;;46.80;44.80;;;;;;;8.40;87.88;96320.66;5031694;28;20033;-76
2023/03/14 04:00:54;;;;;;;46.63;44.63;;;;;;;8.34;87.75;96334.09;5014137;28;20492;-75
2023/03/14 04:03:19;;;;;;;43.50;41.80;;;;;;;8.29;88.73;96341.34;5026957;28;20033;-76
2023/03/14 04:05:44;;;;;;;45.85;43.85;;;;;;;8.28;88.08;96319.09;5013872;28;20036;-75
2023/03/14 04:08:10;;;;;;;43.50;41.70;;;;;;;8.36;88.69;96328.44;5030291;28;20028;-76
2023/03/14 04:10:36;;;;;;;46.40;44.50;;;;;;;8.32;87.81;96319.34;5013997;28;20032;-75
2023/03/14 04:13:08;;;;;;;46.47;44.40;;;;;;;8.32;87.89;96320.16;5019235;28;20061;-75
2023/03/14 04:15:35;;;;;;;49.45;47.45;;;;;;;8.27;88.80;96317.50;5022213;28;20079;-75
2023/03/14 04:18:07;;;;;;;49.75;47.55;;;;;;;8.22;88.17;96312.13;5010698;28;20113;-75
2023/03/14 04:20:34;;;;;;;47.25;45.17;;;;;;;8.30;88.84;96316.16;5018856;28;20115;-75
2023/03/14 04:23:00;;;;;;;48.92;46.92;;;;;;;8.14;88.63;96306.53;4997902;28;20021;-73
2023/03/14 04:25:26;;;;;;;47.00;45.00;;;;;;;8.17;89.02;96296.06;5026317;28;20488;-75
2023/03/14 04:27:55;;;;;;;47.95;46.00;;;;;;;8.32;88.82;96285.28;5014354;28;20028;-74
2023/03/14 04:30:23;;;;;;;48.47;46.53;;;;;;;8.35;88.18;96292.75;5031359;28;20080;-75
2023/03/14 04:32:52;;;;;;;46.75;44.85;;;;;;;8.30;88.34;96283.97;5013951;28;20029;-74
2023/03/14 04:35:19;;;;;;;46.78;44.83;;;;;;;8.23;88.33;96278.06;5013803;28;20057;-75
2023/03/14 04:37:48;;;;;;;45.28;43.47;;;;;;;8.27;88.91;96274.59;5030123;28;20055;-75
2023/03/14 04:40:15;;;;;;;42.00;40.20;;;;;;;8.24;88.84;96272.41;5029909;28;20033;-75
2023/03/14 04:42:40;;;;;;;47.60;45.60;;;;;;;8.23;89.02;96268.16;5013328;28;20088;-74
2023/03/14 04:45:07;;;;;;;46.22;44.33;;;;;;;8.27;87.70;96263.88;5013206;28;20037;-74
2023/03/14 04:47:33;;;;;;;46.47;44.47;;;;;;;8.22;88.39;96266.53;5038137;28;20392;-75
2023/03/14 04:49:59;;;;;;;44.78;42.97;;;;;;;8.17;88.09;96263.88;5018943;28;20436;-75
2023/03/14 04:52:25;;;;;;;44.35;42.55;;;;;;;8.24;88.21;96277.78;5029985;28;20026;-74
2023/03/14 04:54:51;;;;;;;43.58;41.78;;;;;;;8.26;88.43;96281.03;5029647;28;20036;-74
2023/03/14 04:57:18;;;;;;;44.35;42.55;;;;;;;8.34;88.10;96280.44;5013590;28;20090;-74
2023/03/14 04:59:44;;;;;;;43.78;42.00;;;;;;;8.30;89.00;96268.69;5029993;28;20152;-74
2023/03/14 05:02:29;;;;;;;43.75;41.85;;;;;;;8.25;88.20;96266.00;5026181;28;20106;-74
2023/03/14 05:05:13;;;;;;;44.58;42.65;;;;;;;8.26;89.23;96267.59;5030369;28;20562;-73
2023/03/14 05:08:01;;;;;;;45.85;43.90;;;;;;;8.31;88.99;96275.63;5033486;28;20079;-73
2023/03/14 05:10:56;;;;;;;44.40;42.60;;;;;;;8.20;88.95;96260.66;5034102;28;20056;-71
2023/03/14 05:13:41;;;;;;;46.58;44.58;;;;;;;8.27;88.49;96274.59;5033459;28;20060;-71
2023/03/14 05:16:22;;;;;;;45.42;43.42;;;;;;;8.30;88.31;96267.88;5004785;28;20156;-71
2023/03/14 05:19:11;;;;;;;48.00;45.85;;;;;;;8.32;89.13;96269.19;5033255;28;20183;-72
2023/03/14 05:21:40;;;;;;;46.28;44.30;;;;;;;8.32;88.44;96269.19;5033467;28;20530;-72
2023/03/14 05:24:26;;;;;;;46.15;44.25;;;;;;;8.30;89.16;96274.03;5005657;28;20560;-72
2023/03/14 05:27:08;;;;;;;48.63;46.65;;;;;;;8.23;89.08;96273.50;5033403;28;20125;-72
2023/03/14 05:29:43;;;;;;;48.65;46.70;;;;;;;8.25;89.27;96266.00;5017631;28;20064;-73
2023/03/14 05:32:17;;;;;;;43.92;41.92;;;;;;;8.21;89.05;96270.28;5033919;28;20057;-72
2023/03/14 05:35:07;;;;;;;46.55;44.65;;;;;;;8.25;88.81;96275.91;5025834;28;20492;-72
2023/03/14 05:37:40;;;;;;;46.95;44.92;;;;;;;8.10;89.77;96266.06;5034374;28;20120;-72
2023/03/14 05:40:25;;;;;;;46.03;44.05;;;;;;;8.10;88.81;96270.63;5032842;28;20374;-72
2023/03/14 05:43:02;;;;;;;45.78;43.88;;;;;;;8.07;89.27;96280.03;5032990;28;20444;-72
2023/03/14 05:45:36;;;;;;;46.80;44.78;;;;;;;8.07;88.98;96263.94;5034312;28;20058;-72
2023/03/14 05:48:09;;;;;;;44.17;42.28;;;;;;;7.99;89.51;96267.19;5020085;28;20033;-73
2023/03/14 05:50:59;;;;;;;45.35;43.30;;;;;;;7.98;88.91;96251.41;5008105;28;20044;-72
2023/03/14 05:53:47;;;;;;;55.80;51.75;;;;;;;8.01;88.99;96258.88;5018980;28;20051;-73
2023/03/14 05:56:33;;;;;;;55.43;52.17;;;;;;;8.03;89.05;96252.16;5033124;28;20133;-72
2023/03/14 05:59:24;;;;;;;49.20;46.80;;;;;;;7.94;89.03;96248.44;5032839;28;20280;-71
2023/03/14 06:01:59;;;;;;;49.33;47.05;;;;;;;7.93;89.03;96230.78;5032361;28;20032;-71
2023/03/14 06:04:27;;;;;;;49.28;46.97;;;;;;;7.95;88.66;96228.63;5031050;28;20536;-72
2023/03/14 06:06:56;;;;;;;54.50;51.90;;;;;;;7.99;88.67;96235.03;5018602;28;20408;-72
2023/03/14 06:09:23;;;;;;;47.80;45.60;;;;;;;8.08;88.17;96219.16;5031364;28;20042;-72
2023/03/14 06:11:49;;;;;;;47.13;45.13;;;;;;;8.06;88.17;96208.72;5014875;28;20104;-73
2023/03/14 06:14:16;;;;;;;51.30;48.85;;;;;;;7.99;88.09;96216.25;5015352;28;20032;-74
2023/03/14 06:16:45;;;;;;;49.42;47.20;;;;;;;7.99;88.15;96224.31;5016112;28;20416;-74
2023/03/14 06:19:11;;;;;;;47.00;45.00;;;;;;;8.09;87.88;96220.78;5033228;28;20029;-74
2023/03/14 06:21:37;;;;;;;46.63;44.40;;;;;;;8.07;88.07;96218.38;4999308;28;20029;-74
2023/03/14 06:24:03;;;;;;;45.47;43.45;;;;;;;7.98;87.68;96211.97;4999118;28;20036;-74
2023/03/14 06:26:31;;;;;;;49.17;46.97;;;;;;;8.07;87.53;96221.06;5016287;28;20056;-74
2023/03/14 06:28:59;;;;;;;49.38;47.17;;;;;;;8.13;87.31;96213.78;5015409;28;20056;-74
2023/03/14 06:31:24;;;;;;;47.17;45.17;;;;;;;8.15;87.46;96223.16;5031895;28;20116;-73
2023/03/14 06:33:55;;;;;;;48.75;46.40;;;;;;;8.14;87.86;96223.44;5031780;28;20040;-72
2023/03/14 06:36:23;;;;;;;49.22;46.97;;;;;;;8.25;87.43;96217.72;5015623;28;20037;-72
2023/03/14 06:38:49;;;;;;;48.20;45.88;;;;;;;8.24;87.58;96221.47;5015482;28;20025;-72
2023/03/14 06:41:15;;;;;;;48.05;45.85;;;;;;;8.28;86.61;96222.53;5015351;28;20036;-72
2023/03/14 06:43:43;;;;;;;46.78;44.63;;;;;;;8.37;86.21;96220.09;5015215;28;20044;-75
2023/03/14 06:46:08;;;;;;;44.35;42.40;;;;;;;8.38;86.13;96220.91;5015191;28;20041;-72
2023/03/14 06:48:37;;;;;;;47.63;45.22;;;;;;;8.42;86.51;96221.94;5015614;28;20025;-72
2023/03/14 06:51:03;;;;;;;49.60;47.10;;;;;;;8.40;86.32;96224.09;5031567;28;20121;-71
2023/03/14 06:53:28;;;;;;;49.88;47.42;;;;;;;8.44;86.79;96225.13;5031266;28;20030;-74
2023/03/14 06:55:55;;;;;;;48.25;46.05;;;;;;;8.49;86.23;96220.56;4999187;28;20034;-72
2023/03/14 06:58:21;;;;;;;45.05;43.15;;;;;;;8.53;85.81;96218.09;5014752;28;20087;-72
2023/03/14 07:00:46;;;;;;;45.25;43.35;;;;;;;8.52;86.32;96211.16;5014969;28;20033;-72
2023/03/14 07:03:16;;;;;;;44.35;42.47;;;;;;;8.57;86.41;96224.50;5015171;28;20032;-70
2023/03/14 07:05:46;;;;;;;47.65;45.17;;;;;;;8.55;86.13;96216.75;5015328;28;20456;-73
2023/03/14 07:08:11;;;;;;;46.22;43.85;;;;;;;8.58;85.99;96215.38;5018653;28;20029;-73
2023/03/14 07:10:37;;;;;;;51.33;48.25;;;;;;;8.54;85.47;96209.75;5023974;28;20029;-73
2023/03/14 07:13:05;;;;;;;46.60;44.20;;;;;;;8.76;85.62;96218.19;5030829;28;20708;-74
2023/03/14 07:15:34;;;;;;;43.83;41.83;;;;;;;8.65;85.33;96215.88;5031146;28;20392;-73
2023/03/14 07:18:04;;;;;;;49.92;47.33;;;;;;;8.77;85.59;96219.00;4999129;28;20116;-73
2023/03/14 07:20:32;;;;;;;46.75;44.25;;;;;;;8.72;84.65;96219.84;5014784;28;20481;-73
2023/03/14 07:22:59;;;;;;;43.47;41.58;;;;;;;8.73;84.64;96217.94;5024554;28;20041;-73
2023/03/14 07:25:34;;;;;;;44.67;42.47;;;;;;;8.70;85.32;96207.78;5013916;28;20415;-73
2023/03/14 07:27:59;;;;;;;44.25;42.25;;;;;;;8.67;84.51;96216.38;5030340;28;20041;-73
2023/03/14 07:30:25;;;;;;;45.65;43.47;;;;;;;8.77;84.19;96213.63;5014285;28;20029;-73
2023/03/14 07:32:51;;;;;;;41.83;39.90;;;;;;;8.93;84.08;96213.22;5014321;28;20040;-73
2023/03/14 07:35:17;;;;;;;44.15;41.95;;;;;;;8.98;84.23;96212.38;5043965;28;20025;-73
2023/03/14 07:37:42;;;;;;;42.63;40.53;;;;;;;9.04;84.27;96219.28;5004313;28;20059;-73
2023/03/14 07:40:12;;;;;;;39.90;38.20;;;;;;;8.96;83.61;96226.06;5037218;28;20052;-72
2023/03/14 07:42:38;;;;;;;38.88;36.97;;;;;;;9.00;83.51;96229.00;5014289;28;20400;-74
2023/03/14 07:45:24;;;;;;;39.33;37.63;;;;;;;9.15;83.38;96228.84;5030568;28;20036;-72
2023/03/14 07:47:49;;;;;;;40.45;38.75;;;;;;;9.23;83.14;96222.84;5030423;28;20420;-72
2023/03/14 07:50:15;;;;;;;36.90;35.13;;;;;;;9.19;83.46;96224.53;5030318;28;20028;-73
2023/03/14 07:52:40;;;;;;;34.20;32.70;;;;;;;9.32;82.61;96226.53;4997633;28;20124;-73
2023/03/14 07:55:06;;;;;;;33.45;31.95;;;;;;;9.30;82.98;96228.69;5030286;28;20017;-72
2023/03/14 07:57:31;;;;;;;30.23;28.83;;;;;;;9.27;82.24;96223.06;4994144;28;20413;-73
2023/03/14 07:59:57;;;;;;;29.30;27.85;;;;;;;9.41;81.93;96224.81;5010508;28;20029;-72
2023/03/14 08:02:23;;;;;;;27.83;26.58;;;;;;;9.57;81.33;96228.94;5031468;28;20045;-72
2023/03/14 08:04:49;;;;;;;27.50;26.30;;;;;;;9.50;81.73;96225.78;5029863;28;20021;-72
2023/03/14 08:07:14;;;;;;;28.48;27.17;;;;;;;9.47;80.90;96229.06;5030328;28;20031;-71
2023/03/14 08:09:40;;;;;;;25.98;24.65;;;;;;;9.61;80.25;96218.44;5030157;28;20724;-71
2023/03/14 08:12:06;;;;;;;25.05;23.95;;;;;;;9.61;81.06;96227.25;5030209;28;20120;-71
2023/03/14 08:14:31;;;;;;;27.05;25.75;;;;;;;9.53;81.44;96216.34;5010338;28;20021;-71
2023/03/14 08:16:57;;;;;;;27.27;26.08;;;;;;;9.62;80.98;96210.06;5014003;28;20048;-71
2023/03/14 08:19:22;;;;;;;25.42;24.38;;;;;;;9.52;81.62;96199.44;5013942;28;20025;-71
2023/03/14 08:21:47;;;;;;;23.80;22.67;;;;;;;9.70;80.97;96201.38;5030139;28;20520;-71
2023/03/14 08:24:13;;;;;;;23.92;22.63;;;;;;;9.81;80.50;96198.56;5029611;28;20108;-72
2023/03/14 08:26:38;;;;;;;20.13;19.05;;;;;;;9.87;80.30;96200.88;5031402;28;20076;-72
2023/03/14 08:29:04;;;;;;;21.48;20.55;;;;;;;9.93;79.25;96205.13;5013618;28;20100;-72
2023/03/14 08:31:30;;;;;;;19.67;18.60;;;;;;;9.93;79.56;96210.50;5030216;28;20036;-74
2023/03/14 08:33:55;;;;;;;19.15;18.05;;;;;;;9.83;79.66;96205.25;5031192;28;20021;-70
2023/03/14 08:36:20;;;;;;;18.00;17.00;;;;;;;9.73;80.23;96198.09;5030141;28;20508;-71
2023/03/14 08:38:46;;;;;;;21.35;20.35;;;;;;;9.81;79.71;96206.63;5029895;28;20029;-71
2023/03/14 08:41:11;;;;;;;22.17;21.00;;;;;;;9.71;79.91;96207.53;5030791;28;20128;-70
2023/03/14 08:43:37;;;;;;;18.00;17.15;;;;;;;9.82;79.10;96209.03;5046937;28;20053;-71
2023/03/14 08:46:02;;;;;;;12.82;12.02;;;;;;;9.95;78.15;96211.00;5033871;28;20493;-71
2023/03/14 08:48:29;;;;;;;14.20;13.40;;;;;;;10.08;78.37;96209.50;5000865;28;20032;-71
2023/03/14 08:51:07;;;;;;;11.65;10.85;;;;;;;9.92;78.20;96221.56;5033994;28;20045;-70
2023/03/14 08:53:32;;;;;;;12.60;11.80;;;;;;;9.91;77.79;96217.25;5033614;28;20037;-70
2023/03/14 08:55:58;;;;;;;7.32;6.82;;;;;;;9.95;77.11;96218.25;5043777;28;20055;-71
2023/03/14 08:58:23;;;;;;;10.63;9.93;;;;;;;9.80;77.80;96213.09;5037422;28;20077;-70
2023/03/14 09:00:49;;;;;;;9.15;8.48;;;;;;;9.72;76.63;96214.53;5033789;28;20060;-71
2023/03/14 09:03:14;;;;;;;7.32;6.75;;;;;;;9.59;77.83;96204.47;5033484;28;20072;-71
2023/03/14 09:05:40;;;;;;;8.57;7.97;;;;;;;9.64;77.31;96213.25;5033496;28;20033;-71
2023/03/14 09:08:05;;;;;;;9.75;9.15;;;;;;;9.68;78.26;96208.91;5033618;28;20484;-73
2023/03/14 09:10:31;;;;;;;10.20;9.60;;;;;;;9.81;77.78;96209.31;5033458;28;20607;-71
2023/03/14 09:12:57;;;;;;;14.32;13.40;;;;;;;9.69;78.32;96201.66;5016444;28;20048;-71
2023/03/14 09:15:23;;;;;;;12.07;11.27;;;;;;;9.69;77.65;96205.16;5033419;28;20072;-71
2023/03/14 09:17:49;;;;;;;14.55;13.55;;;;;;;9.71;78.50;96197.59;5032287;28;20041;-72
2023/03/14 09:20:14;;;;;;;14.32;13.52;;;;;;;9.72;77.82;96193.81;5033116;28;20030;-71
2023/03/14 09:22:40;;;;;;;16.15;15.25;;;;;;;9.83;78.50;96188.31;5033310;28;20108;-71
2023/03/14 09:25:05;;;;;;;12.85;12.15;;;;;;;9.78;78.15;96197.22;5016635;28;20037;-71
2023/03/14 09:27:31;;;;;;;11.27;10.68;;;;;;;9.82;77.81;96186.72;5033287;28;20052;-72
2023/03/14 09:29:56;;;;;;;11.20;10.30;;;;;;;9.81;77.75;96191.28;5034551;28;20025;-71
2023/03/14 09:32:22;;;;;;;10.45;9.93;;;;;;;9.92;76.84;96191.97;5016789;28;20044;-71
2023/03/14 09:34:47;;;;;;;9.70;9.13;;;;;;;9.93;76.31;96193.56;5016536;28;20463;-72
2023/03/14 09:37:13;;;;;;;11.52;10.93;;;;;;;9.83;77.04;96189.09;5033061;28;20037;-71
2023/03/14 09:39:38;;;;;;;11.73;10.82;;;;;;;9.93;77.55;96178.22;5033089;28;20025;-71
2023/03/14 09:42:06;;;;;;;9.32;8.52;;;;;;;9.95;76.67;96202.13;5016291;28;20099;-71
2023/03/14 09:44:33;;;;;;;9.45;8.50;;;;;;;10.11;76.91;96196.28;5032770;28;20431;-71
2023/03/14 09:47:02;;;;;;;6.20;5.80;;;;;;;10.10;76.23;96197.38;5032836;28;20051;-73
2023/03/14 09:49:30;;;;;;;7.90;7.10;;;;;;;10.13;76.88;96204.06;5032915;28;20045;-72
2023/03/14 09:51:58;;;;;;;7.75;7.25;;;;;;;10.14;76.30;96216.44;5032170;28;20061;-72
2023/03/14 09:54:37;;;;;;;4.85;4.45;;;;;;;10.07;75.32;96218.66;5016153;28;20017;-74
2023/03/14 09:57:04;;;;;;;7.20;6.63;;;;;;;10.11;76.26;96222.34;5046258;28;20044;-71
2023/03/14 09:59:29;;;;;;;7.55;6.93;;;;;;;10.12;75.87;96224.00;5032768;28;20572;-72
2023/03/14 10:02:00;;;;;;;5.97;5.10;;;;;;;10.15;75.39;96218.03;5033867;28;20117;-72
2023/03/14 10:04:25;;;;;;;6.50;6.05;;;;;;;10.10;75.88;96231.53;5015784;28;20033;-73
2023/03/14 10:06:51;;;;;;;5.25;4.90;;;;;;;10.09;75.75;96232.59;5032501;28;20455;-73
2023/03/14 10:09:24;;;;;;;5.88;5.38;;;;;;;10.22;75.40;96242.69;5032705;28;20052;-73
2023/03/14 10:12:00;;;;;;;8.65;8.15;;;;;;;10.10;76.10;96239.59;5032343;28;20035;-72
2023/03/14 10:14:44;;;;;;;7.95;7.25;;;;;;;10.10;76.02;96228.84;5015744;28;20030;-72
2023/03/14 10:17:12;;;;;;;6.28;5.88;;;;;;;10.03;76.30;96236.47;5032555;28;20412;-71
2023/03/14 10:19:51;;;;;;;5.80;5.30;;;;;;;9.94;76.03;96238.19;5032352;28;20029;-72
2023/03/14 10:22:17;;;;;;;7.70;7.20;;;;;;;9.96;77.01;96234.13;5032314;28;20051;-73
2023/03/14 10:24:46;;;;;;;6.88;6.38;;;;;;;9.97;76.73;96237.59;5032181;28;20427;-73
2023/03/14 10:27:26;;;;;;;7.65;7.00;;;;;;;10.04;76.14;96232.66;5032264;28;20444;-71
2023/03/14 10:29:55;;;;;;;7.60;6.97;;;;;;;10.09;75.97;96235.28;5032233;28;20041;-73
2023/03/14 10:32:21;;;;;;;8.05;7.00;;;;;;;10.08;76.02;96234.47;5032113;28;20139;-71
2023/03/14 10:35:23;;;;;;;8.30;7.80;;;;;;;10.12;75.99;96224.81;5012087;28;20457;-73
2023/03/14 10:38:00;;;;;;;10.32;9.50;;;;;;;10.06;77.08;96230.50;5031795;28;20057;-73
2023/03/14 10:40:39;;;;;;;9.90;9.07;;;;;;;10.15;76.67;96231.50;5031987;28;20037;-73
2023/03/14 10:43:06;;;;;;;9.43;8.82;;;;;;;10.18;76.33;96236.28;5014957;28;20030;-72
2023/03/14 10:45:40;;;;;;;7.97;7.45;;;;;;;10.30;76.17;96229.38;5031621;28;20507;-72
2023/03/14 10:48:20;;;;;;;7.28;6.68;;;;;;;10.25;75.77;96223.25;5031751;28;20520;-71
2023/03/14 10:51:07;;;;;;;5.10;4.75;;;;;;;10.37;74.39;96229.03;5031650;28;20087;-72
2023/03/14 10:53:34;;;;;;;;;;;;;;;10.43;74.09;96230.56;5031503;28;20036;-73
2023/03/14 10:56:02;;;;;;;5.50;5.00;;;;;;;10.60;74.14;96224.63;5031500;28;19912;-72
2023/03/14 10:58:29;;;;;;;3.42;2.97;;;;;;;10.51;72.89;96226.41;5032740;28;20107;-73
2023/03/14 11:01:48;;;;;;;4.28;3.85;;;;;;;10.59;74.19;96228.44;5031535;28;20049;-73
2023/03/14 11:04:43;;;;;;;2.55;2.35;;;;;;;10.68;72.08;96227.47;5005187;28;20187;-73
2023/03/14 11:07:32;;;;;;;4.20;3.05;;;;;;;10.77;72.68;96225.72;4999573;28;20514;-71
2023/03/14 11:10:30;;;;;;;2.53;1.85;;;;;;;10.92;71.08;96222.78;5028196;28;20054;-73
2023/03/14 11:13:39;;;;;;;2.42;1.40;;;;;;;10.99;70.42;96222.41;5045026;28;20046;-73
2023/03/14 11:16:21;;;;;;;2.20;2.00;;;;;;;11.05;71.96;96227.41;4990454;28;20037;-74
2023/03/14 11:18:52;;;;;;;1.70;1.60;;;;;;;11.06;71.33;96217.44;4993906;28;20504;-73
2023/03/14 11:21:23;;;;;;;3.38;1.60;;;;;;;11.04;70.80;96225.81;5016662;28;20590;-74
2023/03/14 11:24:25;;;;;;;1.25;1.15;;;;;;;10.99;70.43;96228.56;5014246;28;20041;-74
2023/03/14 11:27:12;;;;;;;1.92;1.35;;;;;;;11.21;70.59;96197.50;5014570;28;20044;-74
2023/03/14 11:29:41;;;;;;;1.77;1.20;;;;;;;11.22;69.42;96220.66;5030992;28;20116;-72
2023/03/14 11:32:41;;;;;;;1.10;1.00;;;;;;;11.31;69.06;96202.72;5030909;28;20021;-74
2023/03/14 11:35:22;;;;;;;1.77;1.67;;;;;;;11.48;69.20;96213.72;5030811;28;20108;-74
2023/03/14 11:37:53;;;;;;;1.23;0.88;;;;;;;11.35;68.82;96209.09;5017939;28;20509;-74
2023/03/14 11:40:24;;;;;;;0.90;0.90;;;;;;;11.85;67.87;96197.38;5030590;28;20038;-73